events-overview

Kinetic Half

 

Relays

Lake Anna State Park - Spotsylvania, VA 5/12/2012 07:00AM

** Results are for the private use of participants and are the Intellectual Property of Set Up Events. Unauthorized use of these results is prohibited.

Place T Bib Team Rank SWIM Rank T1 Rank BIKE Rank T2 Rank RUN PENALTY TIME DQ
1X587BIKE RACK - TAKE NO PRISO800:31:19300:01:20102:24:351000:00:36101:21:20 04:19:08 
2X594JAFL300:28:04400:01:20602:35:45100:00:30301:34:06 04:39:43 
3X585ALPINE SKI SHOP100:25:14100:01:15202:26:081400:00:381201:46:38 04:39:51 
4X617Z ALL YOU CAN Z2600:41:043200:02:12502:33:322100:00:43201:32:59 04:50:27 
5X604THE GOOFBALLS1200:33:452300:01:45402:31:062900:00:491101:45:43 04:53:06 
6X599TEAM CORROSION700:30:411800:01:351002:43:232400:00:45501:38:40 04:55:02 
7X608TOM SELLECK'S MUSTACHE500:30:10700:01:24302:30:391200:00:371501:52:31 04:55:19 
8X605THREE FAST, THREE FURIOUS1400:35:58600:01:231102:43:43800:00:36401:34:28 04:56:06 
9X596SELF PROPELLED AWESOMENES1800:37:301200:01:28702:38:47500:00:361301:46:47 05:05:06 
10X606THREE KEEHNER COUSINS1300:34:492800:01:591202:47:133600:01:34801:43:31 05:09:04 
11X615WILD HOGS400:29:02200:01:181902:57:32400:00:35601:41:04 05:09:29 
12X590CERBERUS200:26:57900:01:27902:41:451100:00:371801:59:03 05:09:47 
13X611TRI-UMPHANT DUO1500:36:11500:01:231302:49:393300:00:56901:44:35 05:12:42 
14X628DOS AMIGOS1900:37:353700:05:01802:41:003100:00:521401:50:24 05:14:50 
15X616YT-TRI-UM900:31:201100:01:281402:49:401900:00:412102:00:01 05:23:07 
16X589CAR SHAKERS1000:31:231000:01:272803:21:271500:00:401001:45:23 05:40:18 
17X603THE FANTASTIC THREE2000:37:372500:01:471502:49:562200:00:442702:10:53 05:40:56 
18X610TRI-DC CHICKS2700:41:061300:01:291802:56:03300:00:342202:04:16 05:43:26 
19X598TEAM AMAZING DAY600:30:331600:01:332603:15:272000:00:421601:56:19 05:44:32 
20X593GORGON SISTERS2100:38:201500:01:311702:55:261700:00:402902:11:28 05:47:23 
21X620ZPARTAN3400:45:063400:03:432103:01:163500:01:231701:58:44 05:50:10 
22X600TEAM MAK1700:37:051400:01:302203:08:59900:00:362402:05:23 05:53:31 
23X601TEAM MAPLE BACON3300:44:271900:01:362003:01:092500:00:462802:11:20 05:59:17 
24X5841+1=32200:38:223500:03:532503:14:581300:00:382302:04:24 06:02:12 
25X613TWOLY RULEY1600:36:163600:04:582403:12:422300:00:453102:13:58 06:08:37 
26X595LOCO RACING3000:42:442200:01:441602:54:31700:00:363302:33:52 06:13:26 
27X602TEAM Z 32400:39:073100:02:073303:36:34200:00:321901:59:22 06:17:41 
28X586BETH ANDREA AND TAMARA2900:42:152000:01:363003:28:083200:00:552502:05:38 06:18:31 
29X618Z FORCE3700:48:172100:01:443403:44:54600:00:36701:43:13 06:18:41 
30X588BURKE/HESS3500:45:492700:01:572703:17:513700:06:182602:06:2700:04:0006:22:20 
PlaceTBibTeamRankSWIMRankT1RankBIKERankT2RankRUNPENALTYTIMEDQ
31X591DANGEROUS DOCS3200:44:192900:02:042903:24:142600:00:483002:12:37 06:24:00 
32X612TWO DIVAS AND DUDE1100:32:581700:01:343604:01:101800:00:412001:59:56 06:36:16 
33X592FINS AND FASHION3100:43:363300:03:003103:30:323400:01:043202:20:16 06:38:27 
34X609TRAINING FOR A 5K3800:48:312400:01:472303:12:291600:00:403702:41:41 06:45:05 
35X614WHOSE CRAZY IDEA WAS THIS3600:48:022600:01:503203:35:333000:00:503502:36:37 07:02:50 
36X619ZESTY LADIES2500:41:01800:01:253503:46:082800:00:483602:41:04 07:10:25 
37X607THREE Z'S2800:41:283000:02:043804:14:452700:00:483402:35:06 07:34:08 
38X597SSG2300:38:333800:07:023704:08:44    DNF  

** Results are for the private use of participants and are the Intellectual Property of Set Up Events. Unauthorized use of these results is prohibited.